Terminal Aerodrome Forecast
Issued by NWS

Home | Current Version | Previous Version | Graphics & Text | Print | Product List | Glossary Off
Versions: 1 2 3 4 5 6 7 8 9 10 11 12 13 14 15 16 17 18 19 20 21 22 23 24 25 26 27 28 29 30 31 32 33 34 35 36 37 38 39

072
FTUS43 KDDC 070520
TAFGCK
TAF
KGCK 070520Z 0706/0806 11009KT P6SM BKN100
     FM071500 08015G22KT P6SM OVC045
      TEMPO 0716/0720 3SM -SN OVC020
     FM072000 03014G20KT P6SM OVC020
     FM080100 01010KT P6SM BKN040=

USA.gov is the U.S. government's official web portal to all federal, state and local government web resources and services.